sensor_id;sensor_type;location;lat;lon;timestamp;P1;durP1;ratioP1;P2;durP2;ratioP2
27163;SDS011;14685;50.618;7.024;2024-01-30T00:00:20;11.18;;;7.45;;
27163;SDS011;14685;50.618;7.024;2024-01-30T00:02:47;14.95;;;7.93;;
27163;SDS011;14685;50.618;7.024;2024-01-30T00:05:15;13.82;;;8.70;;
27163;SDS011;14685;50.618;7.024;2024-01-30T00:07:42;12.85;;;8.10;;
27163;SDS011;14685;50.618;7.024;2024-01-30T00:10:09;13.30;;;8.65;;
27163;SDS011;14685;50.618;7.024;2024-01-30T00:12:36;14.00;;;9.45;;
27163;SDS011;14685;50.618;7.024;2024-01-30T00:15:03;12.75;;;8.60;;
27163;SDS011;14685;50.618;7.024;2024-01-30T00:17:34;15.50;;;8.50;;
27163;SDS011;14685;50.618;7.024;2024-01-30T00:20:03;15.98;;;9.10;;
27163;SDS011;14685;50.618;7.024;2024-01-30T00:22:36;15.90;;;9.18;;
27163;SDS011;14685;50.618;7.024;2024-01-30T00:25:05;11.32;;;8.15;;
27163;SDS011;14685;50.618;7.024;2024-01-30T00:27:32;15.30;;;9.27;;
27163;SDS011;14685;50.618;7.024;2024-01-30T00:29:59;12.60;;;8.95;;
27163;SDS011;14685;50.618;7.024;2024-01-30T00:32:27;14.38;;;8.90;;
27163;SDS011;14685;50.618;7.024;2024-01-30T00:34:55;11.13;;;8.00;;
27163;SDS011;14685;50.618;7.024;2024-01-30T00:37:23;12.18;;;8.70;;
27163;SDS011;14685;50.618;7.024;2024-01-30T00:39:50;17.00;;;8.70;;
27163;SDS011;14685;50.618;7.024;2024-01-30T00:42:17;14.13;;;9.15;;
27163;SDS011;14685;50.618;7.024;2024-01-30T00:44:44;15.25;;;9.15;;
27163;SDS011;14685;50.618;7.024;2024-01-30T00:47:10;11.55;;;8.65;;
27163;SDS011;14685;50.618;7.024;2024-01-30T00:49:40;14.30;;;7.80;;
27163;SDS011;14685;50.618;7.024;2024-01-30T00:52:07;13.25;;;8.13;;
27163;SDS011;14685;50.618;7.024;2024-01-30T00:54:36;11.65;;;8.65;;
27163;SDS011;14685;50.618;7.024;2024-01-30T00:57:04;15.27;;;9.40;;
27163;SDS011;14685;50.618;7.024;2024-01-30T00:59:31;11.98;;;8.32;;
27163;SDS011;14685;50.618;7.024;2024-01-30T01:01:59;14.73;;;8.75;;
27163;SDS011;14685;50.618;7.024;2024-01-30T01:04:26;13.48;;;8.48;;
27163;SDS011;14685;50.618;7.024;2024-01-30T01:06:53;13.85;;;8.68;;
27163;SDS011;14685;50.618;7.024;2024-01-30T01:09:22;14.27;;;8.63;;
27163;SDS011;14685;50.618;7.024;2024-01-30T01:11:49;14.73;;;8.52;;
27163;SDS011;14685;50.618;7.024;2024-01-30T01:14:16;17.90;;;9.27;;
27163;SDS011;14685;50.618;7.024;2024-01-30T01:16:43;12.07;;;8.35;;
27163;SDS011;14685;50.618;7.024;2024-01-30T01:19:10;10.75;;;7.93;;
27163;SDS011;14685;50.618;7.024;2024-01-30T01:21:39;13.98;;;8.82;;
27163;SDS011;14685;50.618;7.024;2024-01-30T01:24:06;11.73;;;8.35;;
27163;SDS011;14685;50.618;7.024;2024-01-30T01:26:33;13.75;;;7.78;;
27163;SDS011;14685;50.618;7.024;2024-01-30T01:29:00;13.02;;;8.98;;
27163;SDS011;14685;50.618;7.024;2024-01-30T01:31:30;13.77;;;8.88;;
27163;SDS011;14685;50.618;7.024;2024-01-30T01:33:57;12.32;;;8.23;;
27163;SDS011;14685;50.618;7.024;2024-01-30T01:36:24;11.57;;;8.05;;
27163;SDS011;14685;50.618;7.024;2024-01-30T01:38:51;12.10;;;8.38;;
27163;SDS011;14685;50.618;7.024;2024-01-30T01:41:18;16.58;;;8.70;;
27163;SDS011;14685;50.618;7.024;2024-01-30T01:43:45;12.75;;;8.60;;
27163;SDS011;14685;50.618;7.024;2024-01-30T01:46:13;16.88;;;8.30;;
27163;SDS011;14685;50.618;7.024;2024-01-30T01:48:41;12.52;;;7.45;;
27163;SDS011;14685;50.618;7.024;2024-01-30T01:51:11;11.38;;;8.13;;
27163;SDS011;14685;50.618;7.024;2024-01-30T01:53:39;10.88;;;7.63;;
27163;SDS011;14685;50.618;7.024;2024-01-30T01:56:06;12.80;;;7.95;;
27163;SDS011;14685;50.618;7.024;2024-01-30T01:58:34;16.25;;;8.43;;
27163;SDS011;14685;50.618;7.024;2024-01-30T02:01:02;13.27;;;7.72;;
27163;SDS011;14685;50.618;7.024;2024-01-30T02:03:31;11.30;;;7.45;;
27163;SDS011;14685;50.618;7.024;2024-01-30T02:05:58;11.30;;;6.88;;
27163;SDS011;14685;50.618;7.024;2024-01-30T02:08:25;14.20;;;7.03;;
27163;SDS011;14685;50.618;7.024;2024-01-30T02:10:52;10.57;;;6.85;;
27163;SDS011;14685;50.618;7.024;2024-01-30T02:13:20;13.35;;;7.47;;
27163;SDS011;14685;50.618;7.024;2024-01-30T02:15:49;8.80;;;6.32;;
27163;SDS011;14685;50.618;7.024;2024-01-30T02:18:19;9.63;;;6.90;;
27163;SDS011;14685;50.618;7.024;2024-01-30T02:20:47;9.57;;;6.88;;
27163;SDS011;14685;50.618;7.024;2024-01-30T02:23:15;11.80;;;6.82;;
27163;SDS011;14685;50.618;7.024;2024-01-30T02:25:42;12.88;;;7.28;;
27163;SDS011;14685;50.618;7.024;2024-01-30T02:28:13;11.27;;;7.22;;
27163;SDS011;14685;50.618;7.024;2024-01-30T02:30:40;10.88;;;6.82;;
27163;SDS011;14685;50.618;7.024;2024-01-30T02:33:12;9.88;;;7.20;;
27163;SDS011;14685;50.618;7.024;2024-01-30T02:35:39;12.90;;;6.90;;
27163;SDS011;14685;50.618;7.024;2024-01-30T02:38:06;8.63;;;7.00;;
27163;SDS011;14685;50.618;7.024;2024-01-30T02:40:33;11.77;;;7.47;;
27163;SDS011;14685;50.618;7.024;2024-01-30T02:43:02;13.07;;;7.70;;
27163;SDS011;14685;50.618;7.024;2024-01-30T02:45:31;11.35;;;7.82;;
27163;SDS011;14685;50.618;7.024;2024-01-30T02:47:59;11.30;;;7.60;;
27163;SDS011;14685;50.618;7.024;2024-01-30T02:50:26;13.90;;;7.57;;
27163;SDS011;14685;50.618;7.024;2024-01-30T02:52:54;10.85;;;7.07;;
27163;SDS011;14685;50.618;7.024;2024-01-30T02:55:22;16.40;;;7.90;;
27163;SDS011;14685;50.618;7.024;2024-01-30T02:57:49;10.38;;;6.30;;
27163;SDS011;14685;50.618;7.024;2024-01-30T03:00:17;11.85;;;7.80;;
27163;SDS011;14685;50.618;7.024;2024-01-30T03:02:46;10.65;;;7.13;;
27163;SDS011;14685;50.618;7.024;2024-01-30T03:05:13;12.98;;;8.27;;
27163;SDS011;14685;50.618;7.024;2024-01-30T03:07:40;10.60;;;7.75;;
27163;SDS011;14685;50.618;7.024;2024-01-30T03:10:07;12.10;;;7.32;;
27163;SDS011;14685;50.618;7.024;2024-01-30T03:12:34;16.55;;;7.93;;
27163;SDS011;14685;50.618;7.024;2024-01-30T03:15:01;14.27;;;7.43;;
27163;SDS011;14685;50.618;7.024;2024-01-30T03:17:28;12.70;;;7.10;;
27163;SDS011;14685;50.618;7.024;2024-01-30T03:19:55;12.90;;;7.88;;
27163;SDS011;14685;50.618;7.024;2024-01-30T03:22:22;14.38;;;7.28;;
27163;SDS011;14685;50.618;7.024;2024-01-30T03:24:49;10.88;;;8.02;;
27163;SDS011;14685;50.618;7.024;2024-01-30T03:27:16;14.05;;;8.20;;
27163;SDS011;14685;50.618;7.024;2024-01-30T03:29:43;16.23;;;8.98;;
27163;SDS011;14685;50.618;7.024;2024-01-30T03:32:10;10.63;;;7.72;;
27163;SDS011;14685;50.618;7.024;2024-01-30T03:34:37;12.07;;;7.78;;
27163;SDS011;14685;50.618;7.024;2024-01-30T03:37:05;16.45;;;8.57;;
27163;SDS011;14685;50.618;7.024;2024-01-30T03:39:32;9.48;;;7.47;;
27163;SDS011;14685;50.618;7.024;2024-01-30T03:41:58;12.52;;;7.55;;
27163;SDS011;14685;50.618;7.024;2024-01-30T03:44:25;12.30;;;6.85;;
27163;SDS011;14685;50.618;7.024;2024-01-30T03:46:52;11.55;;;7.55;;
27163;SDS011;14685;50.618;7.024;2024-01-30T03:49:19;12.10;;;7.50;;
27163;SDS011;14685;50.618;7.024;2024-01-30T03:51:46;10.77;;;7.70;;
27163;SDS011;14685;50.618;7.024;2024-01-30T03:54:14;13.13;;;7.95;;
27163;SDS011;14685;50.618;7.024;2024-01-30T03:56:41;12.10;;;8.48;;
27163;SDS011;14685;50.618;7.024;2024-01-30T03:59:08;12.73;;;8.07;;
27163;SDS011;14685;50.618;7.024;2024-01-30T04:01:35;12.68;;;8.35;;
27163;SDS011;14685;50.618;7.024;2024-01-30T04:04:03;10.57;;;7.57;;
27163;SDS011;14685;50.618;7.024;2024-01-30T04:06:30;14.63;;;8.25;;
27163;SDS011;14685;50.618;7.024;2024-01-30T04:08:57;16.25;;;8.32;;
27163;SDS011;14685;50.618;7.024;2024-01-30T04:11:24;14.30;;;7.95;;
27163;SDS011;14685;50.618;7.024;2024-01-30T04:13:51;11.02;;;7.65;;
27163;SDS011;14685;50.618;7.024;2024-01-30T04:16:21;15.95;;;7.85;;
27163;SDS011;14685;50.618;7.024;2024-01-30T04:18:49;11.82;;;7.82;;
27163;SDS011;14685;50.618;7.024;2024-01-30T04:21:17;13.35;;;7.28;;
27163;SDS011;14685;50.618;7.024;2024-01-30T04:23:47;11.48;;;7.78;;
27163;SDS011;14685;50.618;7.024;2024-01-30T04:26:14;11.85;;;7.70;;
27163;SDS011;14685;50.618;7.024;2024-01-30T04:28:42;11.10;;;7.55;;
27163;SDS011;14685;50.618;7.024;2024-01-30T04:31:10;10.98;;;7.60;;
27163;SDS011;14685;50.618;7.024;2024-01-30T04:33:37;10.95;;;7.40;;
27163;SDS011;14685;50.618;7.024;2024-01-30T04:36:07;13.75;;;8.50;;
27163;SDS011;14685;50.618;7.024;2024-01-30T04:38:37;10.65;;;7.30;;
27163;SDS011;14685;50.618;7.024;2024-01-30T04:41:09;11.85;;;7.40;;
27163;SDS011;14685;50.618;7.024;2024-01-30T04:43:35;12.23;;;7.65;;
27163;SDS011;14685;50.618;7.024;2024-01-30T04:46:03;10.80;;;7.07;;
27163;SDS011;14685;50.618;7.024;2024-01-30T04:48:30;11.88;;;7.15;;
27163;SDS011;14685;50.618;7.024;2024-01-30T04:50:58;11.00;;;7.35;;
27163;SDS011;14685;50.618;7.024;2024-01-30T04:53:25;12.48;;;7.43;;
27163;SDS011;14685;50.618;7.024;2024-01-30T04:55:52;10.05;;;7.05;;
27163;SDS011;14685;50.618;7.024;2024-01-30T04:58:20;10.48;;;7.03;;
27163;SDS011;14685;50.618;7.024;2024-01-30T05:00:49;13.82;;;7.32;;
27163;SDS011;14685;50.618;7.024;2024-01-30T05:03:19;10.85;;;6.78;;
27163;SDS011;14685;50.618;7.024;2024-01-30T05:05:46;11.88;;;8.02;;
27163;SDS011;14685;50.618;7.024;2024-01-30T05:08:14;10.98;;;7.18;;
27163;SDS011;14685;50.618;7.024;2024-01-30T05:10:41;11.90;;;7.45;;
27163;SDS011;14685;50.618;7.024;2024-01-30T05:13:08;12.30;;;7.40;;
27163;SDS011;14685;50.618;7.024;2024-01-30T05:15:35;12.50;;;7.30;;
27163;SDS011;14685;50.618;7.024;2024-01-30T05:18:04;18.13;;;9.82;;
27163;SDS011;14685;50.618;7.024;2024-01-30T05:20:32;12.48;;;8.43;;
27163;SDS011;14685;50.618;7.024;2024-01-30T05:22:59;17.75;;;12.48;;
27163;SDS011;14685;50.618;7.024;2024-01-30T05:25:28;12.52;;;7.75;;
27163;SDS011;14685;50.618;7.024;2024-01-30T05:27:55;9.48;;;6.80;;
27163;SDS011;14685;50.618;7.024;2024-01-30T05:30:23;10.25;;;6.93;;
27163;SDS011;14685;50.618;7.024;2024-01-30T05:32:50;11.43;;;6.40;;
27163;SDS011;14685;50.618;7.024;2024-01-30T05:35:17;9.77;;;6.20;;
27163;SDS011;14685;50.618;7.024;2024-01-30T05:37:44;13.38;;;8.40;;
27163;SDS011;14685;50.618;7.024;2024-01-30T05:40:12;12.65;;;8.43;;
27163;SDS011;14685;50.618;7.024;2024-01-30T05:42:39;13.13;;;7.90;;
27163;SDS011;14685;50.618;7.024;2024-01-30T05:45:06;11.07;;;6.88;;
27163;SDS011;14685;50.618;7.024;2024-01-30T05:47:34;9.57;;;7.13;;
27163;SDS011;14685;50.618;7.024;2024-01-30T05:50:02;9.20;;;6.38;;
27163;SDS011;14685;50.618;7.024;2024-01-30T05:52:29;9.70;;;6.68;;
27163;SDS011;14685;50.618;7.024;2024-01-30T05:54:56;12.25;;;6.82;;
27163;SDS011;14685;50.618;7.024;2024-01-30T05:57:23;10.70;;;6.75;;
27163;SDS011;14685;50.618;7.024;2024-01-30T05:59:50;10.20;;;6.75;;
27163;SDS011;14685;50.618;7.024;2024-01-30T06:02:19;11.52;;;6.53;;
27163;SDS011;14685;50.618;7.024;2024-01-30T06:04:45;8.00;;;6.05;;
27163;SDS011;14685;50.618;7.024;2024-01-30T06:07:13;11.18;;;6.68;;
27163;SDS011;14685;50.618;7.024;2024-01-30T06:09:41;11.98;;;7.18;;
27163;SDS011;14685;50.618;7.024;2024-01-30T06:12:08;9.35;;;6.63;;
27163;SDS011;14685;50.618;7.024;2024-01-30T06:14:38;9.70;;;6.25;;
27163;SDS011;14685;50.618;7.024;2024-01-30T06:17:05;10.63;;;6.47;;
27163;SDS011;14685;50.618;7.024;2024-01-30T06:19:32;10.27;;;6.68;;
27163;SDS011;14685;50.618;7.024;2024-01-30T06:22:01;9.00;;;6.60;;
27163;SDS011;14685;50.618;7.024;2024-01-30T06:24:27;11.23;;;7.63;;
27163;SDS011;14685;50.618;7.024;2024-01-30T06:26:58;9.60;;;6.75;;
27163;SDS011;14685;50.618;7.024;2024-01-30T06:29:25;10.20;;;6.47;;
27163;SDS011;14685;50.618;7.024;2024-01-30T06:31:53;10.50;;;7.05;;
27163;SDS011;14685;50.618;7.024;2024-01-30T06:34:21;10.77;;;6.80;;
27163;SDS011;14685;50.618;7.024;2024-01-30T06:36:49;14.45;;;8.23;;
27163;SDS011;14685;50.618;7.024;2024-01-30T06:39:16;11.70;;;7.45;;
27163;SDS011;14685;50.618;7.024;2024-01-30T06:41:43;10.65;;;6.90;;
27163;SDS011;14685;50.618;7.024;2024-01-30T06:44:12;10.45;;;7.18;;
27163;SDS011;14685;50.618;7.024;2024-01-30T06:46:40;10.70;;;7.32;;
27163;SDS011;14685;50.618;7.024;2024-01-30T06:49:07;13.65;;;7.57;;
27163;SDS011;14685;50.618;7.024;2024-01-30T06:51:34;14.68;;;7.25;;
27163;SDS011;14685;50.618;7.024;2024-01-30T06:54:01;11.75;;;7.63;;
27163;SDS011;14685;50.618;7.024;2024-01-30T06:56:28;13.68;;;7.78;;
27163;SDS011;14685;50.618;7.024;2024-01-30T06:58:55;15.90;;;9.18;;
27163;SDS011;14685;50.618;7.024;2024-01-30T07:01:28;11.98;;;8.18;;
27163;SDS011;14685;50.618;7.024;2024-01-30T07:03:56;23.60;;;11.30;;
27163;SDS011;14685;50.618;7.024;2024-01-30T07:06:24;16.63;;;7.82;;
27163;SDS011;14685;50.618;7.024;2024-01-30T07:08:51;9.07;;;6.90;;
27163;SDS011;14685;50.618;7.024;2024-01-30T07:11:21;11.07;;;6.93;;
27163;SDS011;14685;50.618;7.024;2024-01-30T07:13:48;10.77;;;7.40;;
27163;SDS011;14685;50.618;7.024;2024-01-30T07:16:16;11.35;;;7.32;;
27163;SDS011;14685;50.618;7.024;2024-01-30T07:18:44;12.57;;;7.13;;
27163;SDS011;14685;50.618;7.024;2024-01-30T07:21:11;12.20;;;7.70;;
27163;SDS011;14685;50.618;7.024;2024-01-30T07:23:39;14.80;;;7.32;;
27163;SDS011;14685;50.618;7.024;2024-01-30T07:26:07;12.20;;;6.93;;
27163;SDS011;14685;50.618;7.024;2024-01-30T07:28:35;12.48;;;7.32;;
27163;SDS011;14685;50.618;7.024;2024-01-30T07:31:02;10.10;;;7.07;;
27163;SDS011;14685;50.618;7.024;2024-01-30T07:33:29;12.90;;;6.93;;
27163;SDS011;14685;50.618;7.024;2024-01-30T07:35:58;14.25;;;7.35;;
27163;SDS011;14685;50.618;7.024;2024-01-30T07:38:25;9.07;;;6.60;;
27163;SDS011;14685;50.618;7.024;2024-01-30T07:40:51;14.63;;;7.07;;
27163;SDS011;14685;50.618;7.024;2024-01-30T07:43:18;13.40;;;7.20;;
27163;SDS011;14685;50.618;7.024;2024-01-30T07:45:46;10.15;;;6.68;;
27163;SDS011;14685;50.618;7.024;2024-01-30T07:48:13;11.68;;;6.88;;
27163;SDS011;14685;50.618;7.024;2024-01-30T07:50:41;10.98;;;7.18;;
27163;SDS011;14685;50.618;7.024;2024-01-30T07:53:08;9.45;;;7.03;;
27163;SDS011;14685;50.618;7.024;2024-01-30T07:55:35;10.18;;;6.05;;
27163;SDS011;14685;50.618;7.024;2024-01-30T07:58:02;10.80;;;6.95;;
27163;SDS011;14685;50.618;7.024;2024-01-30T08:03:20;13.27;;;7.35;;
27163;SDS011;14685;50.618;7.024;2024-01-30T08:05:47;13.52;;;8.02;;
27163;SDS011;14685;50.618;7.024;2024-01-30T08:08:14;11.30;;;7.30;;
27163;SDS011;14685;50.618;7.024;2024-01-30T08:10:41;12.77;;;6.95;;
27163;SDS011;14685;50.618;7.024;2024-01-30T08:13:08;11.25;;;6.13;;
27163;SDS011;14685;50.618;7.024;2024-01-30T08:15:35;10.35;;;6.35;;
27163;SDS011;14685;50.618;7.024;2024-01-30T08:18:02;10.98;;;6.65;;
27163;SDS011;14685;50.618;7.024;2024-01-30T08:20:33;11.00;;;6.20;;
27163;SDS011;14685;50.618;7.024;2024-01-30T08:23:00;9.40;;;6.07;;
27163;SDS011;14685;50.618;7.024;2024-01-30T08:25:27;11.20;;;5.93;;
27163;SDS011;14685;50.618;7.024;2024-01-30T08:27:54;11.63;;;6.80;;
27163;SDS011;14685;50.618;7.024;2024-01-30T08:30:21;12.57;;;5.95;;
27163;SDS011;14685;50.618;7.024;2024-01-30T08:32:49;11.50;;;6.18;;
27163;SDS011;14685;50.618;7.024;2024-01-30T08:35:16;14.52;;;7.18;;
27163;SDS011;14685;50.618;7.024;2024-01-30T08:37:44;9.65;;;5.82;;
27163;SDS011;14685;50.618;7.024;2024-01-30T08:40:11;10.25;;;6.28;;
27163;SDS011;14685;50.618;7.024;2024-01-30T08:42:38;8.02;;;5.70;;
27163;SDS011;14685;50.618;7.024;2024-01-30T08:45:05;9.93;;;6.13;;
27163;SDS011;14685;50.618;7.024;2024-01-30T08:47:32;10.40;;;6.15;;
27163;SDS011;14685;50.618;7.024;2024-01-30T08:49:59;9.00;;;6.13;;
27163;SDS011;14685;50.618;7.024;2024-01-30T08:52:27;12.13;;;6.28;;
27163;SDS011;14685;50.618;7.024;2024-01-30T08:54:54;9.80;;;5.93;;
27163;SDS011;14685;50.618;7.024;2024-01-30T08:57:21;13.57;;;5.90;;
27163;SDS011;14685;50.618;7.024;2024-01-30T08:59:48;13.52;;;7.22;;
27163;SDS011;14685;50.618;7.024;2024-01-30T09:02:15;11.02;;;6.65;;
27163;SDS011;14685;50.618;7.024;2024-01-30T09:04:44;13.50;;;6.88;;
27163;SDS011;14685;50.618;7.024;2024-01-30T09:07:12;10.45;;;6.03;;
27163;SDS011;14685;50.618;7.024;2024-01-30T09:09:40;7.55;;;5.60;;
27163;SDS011;14685;50.618;7.024;2024-01-30T09:12:08;14.82;;;6.97;;
27163;SDS011;14685;50.618;7.024;2024-01-30T09:14:39;8.82;;;6.38;;
27163;SDS011;14685;50.618;7.024;2024-01-30T09:17:07;11.90;;;6.20;;
27163;SDS011;14685;50.618;7.024;2024-01-30T09:19:34;11.93;;;6.50;;
27163;SDS011;14685;50.618;7.024;2024-01-30T09:22:02;8.52;;;5.75;;
27163;SDS011;14685;50.618;7.024;2024-01-30T09:24:30;10.98;;;5.70;;
27163;SDS011;14685;50.618;7.024;2024-01-30T09:26:56;13.93;;;6.43;;
27163;SDS011;14685;50.618;7.024;2024-01-30T09:29:25;10.15;;;6.20;;
27163;SDS011;14685;50.618;7.024;2024-01-30T09:31:52;9.25;;;5.63;;
27163;SDS011;14685;50.618;7.024;2024-01-30T09:34:19;12.18;;;6.00;;
27163;SDS011;14685;50.618;7.024;2024-01-30T09:36:46;10.00;;;5.43;;
27163;SDS011;14685;50.618;7.024;2024-01-30T09:39:13;9.80;;;5.32;;
27163;SDS011;14685;50.618;7.024;2024-01-30T09:41:44;10.38;;;5.97;;
27163;SDS011;14685;50.618;7.024;2024-01-30T09:44:16;9.40;;;5.57;;
27163;SDS011;14685;50.618;7.024;2024-01-30T09:46:44;7.07;;;5.53;;
27163;SDS011;14685;50.618;7.024;2024-01-30T09:49:14;9.80;;;5.53;;
27163;SDS011;14685;50.618;7.024;2024-01-30T09:51:44;9.07;;;6.05;;
27163;SDS011;14685;50.618;7.024;2024-01-30T09:54:13;14.00;;;5.68;;
27163;SDS011;14685;50.618;7.024;2024-01-30T09:56:41;14.82;;;5.38;;
27163;SDS011;14685;50.618;7.024;2024-01-30T09:59:08;8.43;;;5.45;;
27163;SDS011;14685;50.618;7.024;2024-01-30T10:01:36;11.75;;;5.72;;
27163;SDS011;14685;50.618;7.024;2024-01-30T10:04:04;9.82;;;5.50;;
27163;SDS011;14685;50.618;7.024;2024-01-30T10:06:32;10.93;;;5.57;;
27163;SDS011;14685;50.618;7.024;2024-01-30T10:08:59;8.77;;;5.25;;
27163;SDS011;14685;50.618;7.024;2024-01-30T10:11:26;7.85;;;5.40;;
27163;SDS011;14685;50.618;7.024;2024-01-30T10:13:53;10.35;;;5.80;;
27163;SDS011;14685;50.618;7.024;2024-01-30T10:16:21;8.63;;;5.25;;
27163;SDS011;14685;50.618;7.024;2024-01-30T10:18:50;11.93;;;6.20;;
27163;SDS011;14685;50.618;7.024;2024-01-30T10:21:17;10.27;;;5.70;;
27163;SDS011;14685;50.618;7.024;2024-01-30T10:23:46;9.23;;;5.40;;
27163;SDS011;14685;50.618;7.024;2024-01-30T10:26:16;11.38;;;5.85;;
27163;SDS011;14685;50.618;7.024;2024-01-30T10:28:43;9.65;;;5.30;;
27163;SDS011;14685;50.618;7.024;2024-01-30T10:31:15;7.40;;;5.15;;
27163;SDS011;14685;50.618;7.024;2024-01-30T10:33:43;11.68;;;5.82;;
27163;SDS011;14685;50.618;7.024;2024-01-30T10:36:12;9.63;;;5.70;;
27163;SDS011;14685;50.618;7.024;2024-01-30T10:38:46;9.63;;;6.00;;
27163;SDS011;14685;50.618;7.024;2024-01-30T10:41:18;11.82;;;5.85;;
27163;SDS011;14685;50.618;7.024;2024-01-30T10:43:54;8.77;;;5.50;;
27163;SDS011;14685;50.618;7.024;2024-01-30T10:46:37;13.85;;;5.75;;
27163;SDS011;14685;50.618;7.024;2024-01-30T10:49:05;7.65;;;5.28;;
27163;SDS011;14685;50.618;7.024;2024-01-30T10:51:33;9.35;;;5.45;;
27163;SDS011;14685;50.618;7.024;2024-01-30T10:54:02;7.43;;;5.70;;
27163;SDS011;14685;50.618;7.024;2024-01-30T10:56:30;9.40;;;5.63;;
27163;SDS011;14685;50.618;7.024;2024-01-30T10:59:00;13.75;;;5.63;;
27163;SDS011;14685;50.618;7.024;2024-01-30T11:01:27;8.25;;;5.07;;
27163;SDS011;14685;50.618;7.024;2024-01-30T11:03:55;8.02;;;5.57;;
27163;SDS011;14685;50.618;7.024;2024-01-30T11:06:24;10.27;;;5.95;;
27163;SDS011;14685;50.618;7.024;2024-01-30T11:09:05;8.35;;;5.35;;
27163;SDS011;14685;50.618;7.024;2024-01-30T11:14:16;7.90;;;5.35;;
27163;SDS011;14685;50.618;7.024;2024-01-30T11:16:43;8.15;;;5.60;;
27163;SDS011;14685;50.618;7.024;2024-01-30T11:19:12;9.18;;;5.75;;
27163;SDS011;14685;50.618;7.024;2024-01-30T11:21:41;6.43;;;5.03;;
27163;SDS011;14685;50.618;7.024;2024-01-30T11:24:10;12.15;;;5.28;;
27163;SDS011;14685;50.618;7.024;2024-01-30T11:26:42;11.55;;;5.35;;
27163;SDS011;14685;50.618;7.024;2024-01-30T11:29:09;10.85;;;5.97;;
27163;SDS011;14685;50.618;7.024;2024-01-30T11:31:40;13.63;;;5.75;;
27163;SDS011;14685;50.618;7.024;2024-01-30T11:37:19;8.90;;;5.10;;
27163;SDS011;14685;50.618;7.024;2024-01-30T11:39:48;12.10;;;6.20;;
27163;SDS011;14685;50.618;7.024;2024-01-30T11:42:16;12.05;;;5.20;;
27163;SDS011;14685;50.618;7.024;2024-01-30T11:44:47;11.95;;;5.47;;
27163;SDS011;14685;50.618;7.024;2024-01-30T11:47:15;10.55;;;5.97;;
27163;SDS011;14685;50.618;7.024;2024-01-30T11:49:43;6.13;;;5.10;;
27163;SDS011;14685;50.618;7.024;2024-01-30T11:52:10;8.43;;;5.55;;
27163;SDS011;14685;50.618;7.024;2024-01-30T11:54:39;9.93;;;6.20;;
27163;SDS011;14685;50.618;7.024;2024-01-30T11:57:06;9.13;;;5.80;;
27163;SDS011;14685;50.618;7.024;2024-01-30T11:59:33;10.68;;;5.90;;
27163;SDS011;14685;50.618;7.024;2024-01-30T12:02:00;7.55;;;5.38;;
27163;SDS011;14685;50.618;7.024;2024-01-30T12:04:28;17.85;;;11.88;;
27163;SDS011;14685;50.618;7.024;2024-01-30T12:06:56;11.35;;;5.95;;
27163;SDS011;14685;50.618;7.024;2024-01-30T12:09:24;9.45;;;5.28;;
27163;SDS011;14685;50.618;7.024;2024-01-30T12:11:51;8.35;;;5.43;;
27163;SDS011;14685;50.618;7.024;2024-01-30T12:14:18;12.23;;;6.30;;
27163;SDS011;14685;50.618;7.024;2024-01-30T12:16:49;10.80;;;5.85;;
27163;SDS011;14685;50.618;7.024;2024-01-30T12:19:23;9.02;;;6.35;;
27163;SDS011;14685;50.618;7.024;2024-01-30T12:21:57;10.05;;;6.25;;
27163;SDS011;14685;50.618;7.024;2024-01-30T12:24:26;14.20;;;6.28;;
27163;SDS011;14685;50.618;7.024;2024-01-30T12:26:58;11.93;;;6.32;;
27163;SDS011;14685;50.618;7.024;2024-01-30T12:29:27;12.82;;;6.05;;
27163;SDS011;14685;50.618;7.024;2024-01-30T12:32:02;10.95;;;6.72;;
27163;SDS011;14685;50.618;7.024;2024-01-30T12:34:29;9.48;;;5.97;;
27163;SDS011;14685;50.618;7.024;2024-01-30T12:37:14;9.80;;;5.65;;
27163;SDS011;14685;50.618;7.024;2024-01-30T12:39:46;13.70;;;6.47;;
27163;SDS011;14685;50.618;7.024;2024-01-30T12:42:13;12.05;;;5.72;;
27163;SDS011;14685;50.618;7.024;2024-01-30T12:44:41;8.52;;;5.80;;
27163;SDS011;14685;50.618;7.024;2024-01-30T12:47:08;12.90;;;7.72;;
27163;SDS011;14685;50.618;7.024;2024-01-30T12:49:36;13.18;;;7.03;;
27163;SDS011;14685;50.618;7.024;2024-01-30T12:52:03;10.95;;;7.18;;
27163;SDS011;14685;50.618;7.024;2024-01-30T12:54:30;12.57;;;8.00;;
27163;SDS011;14685;50.618;7.024;2024-01-30T12:56:58;15.23;;;8.15;;
27163;SDS011;14685;50.618;7.024;2024-01-30T12:59:25;13.43;;;6.78;;
27163;SDS011;14685;50.618;7.024;2024-01-30T13:01:52;12.95;;;6.90;;
27163;SDS011;14685;50.618;7.024;2024-01-30T13:04:19;13.20;;;7.32;;
27163;SDS011;14685;50.618;7.024;2024-01-30T13:06:46;13.60;;;6.57;;
27163;SDS011;14685;50.618;7.024;2024-01-30T13:09:13;8.75;;;6.28;;
27163;SDS011;14685;50.618;7.024;2024-01-30T13:11:43;9.20;;;6.28;;
27163;SDS011;14685;50.618;7.024;2024-01-30T13:14:10;9.13;;;6.28;;
27163;SDS011;14685;50.618;7.024;2024-01-30T13:16:37;10.98;;;6.20;;
27163;SDS011;14685;50.618;7.024;2024-01-30T13:19:04;10.80;;;6.32;;
27163;SDS011;14685;50.618;7.024;2024-01-30T13:21:31;9.88;;;6.15;;
27163;SDS011;14685;50.618;7.024;2024-01-30T13:23:58;10.23;;;5.95;;
27163;SDS011;14685;50.618;7.024;2024-01-30T13:26:25;9.95;;;6.18;;
27163;SDS011;14685;50.618;7.024;2024-01-30T13:28:52;9.18;;;6.38;;
27163;SDS011;14685;50.618;7.024;2024-01-30T13:31:19;16.90;;;6.53;;
27163;SDS011;14685;50.618;7.024;2024-01-30T13:33:46;13.40;;;6.47;;
27163;SDS011;14685;50.618;7.024;2024-01-30T13:36:15;9.85;;;6.45;;
27163;SDS011;14685;50.618;7.024;2024-01-30T13:38:42;9.35;;;5.75;;
27163;SDS011;14685;50.618;7.024;2024-01-30T13:41:09;9.57;;;6.35;;
27163;SDS011;14685;50.618;7.024;2024-01-30T13:43:39;12.18;;;7.30;;
27163;SDS011;14685;50.618;7.024;2024-01-30T13:46:06;16.38;;;6.60;;
27163;SDS011;14685;50.618;7.024;2024-01-30T13:48:36;10.88;;;6.60;;
27163;SDS011;14685;50.618;7.024;2024-01-30T13:51:03;12.88;;;6.40;;
27163;SDS011;14685;50.618;7.024;2024-01-30T13:53:31;10.23;;;6.57;;
27163;SDS011;14685;50.618;7.024;2024-01-30T13:56:00;11.82;;;6.45;;
27163;SDS011;14685;50.618;7.024;2024-01-30T13:58:27;10.13;;;6.28;;
27163;SDS011;14685;50.618;7.024;2024-01-30T14:00:54;9.55;;;6.03;;
27163;SDS011;14685;50.618;7.024;2024-01-30T14:03:21;9.88;;;6.20;;
27163;SDS011;14685;50.618;7.024;2024-01-30T14:05:48;12.45;;;6.10;;
27163;SDS011;14685;50.618;7.024;2024-01-30T14:08:15;10.93;;;6.47;;
27163;SDS011;14685;50.618;7.024;2024-01-30T14:10:42;10.60;;;6.40;;
27163;SDS011;14685;50.618;7.024;2024-01-30T14:13:10;11.13;;;6.10;;
27163;SDS011;14685;50.618;7.024;2024-01-30T14:15:38;11.25;;;6.20;;
27163;SDS011;14685;50.618;7.024;2024-01-30T14:18:05;12.60;;;5.88;;
27163;SDS011;14685;50.618;7.024;2024-01-30T14:20:35;9.80;;;6.00;;
27163;SDS011;14685;50.618;7.024;2024-01-30T14:23:02;11.07;;;6.25;;
27163;SDS011;14685;50.618;7.024;2024-01-30T14:25:29;11.32;;;6.15;;
27163;SDS011;14685;50.618;7.024;2024-01-30T14:27:56;12.52;;;6.95;;
27163;SDS011;14685;50.618;7.024;2024-01-30T14:30:23;11.57;;;6.32;;
27163;SDS011;14685;50.618;7.024;2024-01-30T14:32:51;14.85;;;6.15;;
27163;SDS011;14685;50.618;7.024;2024-01-30T14:35:19;13.43;;;7.03;;
27163;SDS011;14685;50.618;7.024;2024-01-30T14:37:46;13.50;;;6.55;;
27163;SDS011;14685;50.618;7.024;2024-01-30T14:40:13;8.02;;;5.35;;
27163;SDS011;14685;50.618;7.024;2024-01-30T14:42:40;10.77;;;5.88;;
27163;SDS011;14685;50.618;7.024;2024-01-30T14:45:07;11.30;;;6.47;;
27163;SDS011;14685;50.618;7.024;2024-01-30T14:47:35;9.27;;;5.88;;
27163;SDS011;14685;50.618;7.024;2024-01-30T14:50:03;8.90;;;6.03;;